createdAt,value
2023-03-17T00:01:41.102Z,6.59
2023-03-17T00:04:11.614Z,6.64
2023-03-17T00:06:38.269Z,6.67
2023-03-17T00:09:10.436Z,6.67
2023-03-17T00:11:36.851Z,6.64
2023-03-17T00:14:04.056Z,6.64
2023-03-17T00:16:32.520Z,6.64
2023-03-17T00:18:58.988Z,6.67
2023-03-17T00:21:30.656Z,6.62
2023-03-17T00:23:58.227Z,6.69
2023-03-17T00:26:25.194Z,6.65
2023-03-17T00:28:52.970Z,6.72
2023-03-17T00:31:22.142Z,6.73
2023-03-17T00:33:49.646Z,6.72
2023-03-17T00:36:18.951Z,6.65
2023-03-17T00:38:46.030Z,6.72
2023-03-17T00:41:12.780Z,6.73
2023-03-17T00:43:40.118Z,6.75
2023-03-17T00:46:16.607Z,6.78
2023-03-17T00:48:43.930Z,6.81
2023-03-17T00:51:10.736Z,6.74
2023-03-17T00:53:37.612Z,6.79
2023-03-17T00:56:05.137Z,6.80
2023-03-17T00:58:33.407Z,6.77
2023-03-17T01:01:00.874Z,6.76
2023-03-17T01:03:28.254Z,6.77
2023-03-17T01:05:56.948Z,6.75
2023-03-17T01:08:23.892Z,6.75
2023-03-17T01:10:50.364Z,6.61
2023-03-17T01:13:16.820Z,6.70
2023-03-17T01:15:46.202Z,6.64
2023-03-17T01:18:15.869Z,6.65
2023-03-17T01:20:43.189Z,6.67
2023-03-17T01:23:10.491Z,6.69
2023-03-17T01:25:38.569Z,6.72
2023-03-17T01:28:05.890Z,6.61
2023-03-17T01:30:38.405Z,6.74
2023-03-17T01:33:06.753Z,6.74
2023-03-17T01:35:33.249Z,6.69
2023-03-17T01:38:00.577Z,6.81
2023-03-17T01:40:33.255Z,6.83
2023-03-17T01:43:04.294Z,6.84
2023-03-17T01:46:09.803Z,6.86
2023-03-17T01:48:43.028Z,6.84
2023-03-17T01:51:11.957Z,6.84
2023-03-17T01:53:39.669Z,6.85
2023-03-17T01:56:06.537Z,6.88
2023-03-17T01:58:33.668Z,6.93
2023-03-17T02:01:00.129Z,6.94
2023-03-17T02:03:28.048Z,6.96
2023-03-17T02:05:54.520Z,6.88
2023-03-17T02:08:21.762Z,7.04
2023-03-17T02:10:49.603Z,7.06
2023-03-17T02:13:16.721Z,7.06
2023-03-17T02:15:48.392Z,7.05
2023-03-17T02:18:17.134Z,6.94
2023-03-17T02:20:46.658Z,7.11
2023-03-17T02:23:15.909Z,7.11
2023-03-17T02:25:45.028Z,7.18
2023-03-17T02:28:16.178Z,7.17
2023-03-17T02:30:43.597Z,7.10
2023-03-17T02:33:11.897Z,7.09
2023-03-17T02:35:39.617Z,7.13
2023-03-17T02:38:06.315Z,7.03
2023-03-17T02:40:33.159Z,6.98
2023-03-17T02:42:59.978Z,6.98
2023-03-17T02:45:27.220Z,6.76
2023-03-17T02:47:54.238Z,6.92
2023-03-17T02:50:23.659Z,6.93
2023-03-17T02:52:50.899Z,6.92
2023-03-17T02:55:17.866Z,6.93
2023-03-17T02:57:44.516Z,6.92
2023-03-17T03:00:11.790Z,6.94
2023-03-17T03:02:38.398Z,6.85
2023-03-17T03:05:06.501Z,7.00
2023-03-17T03:07:33.058Z,7.00
2023-03-17T03:09:59.526Z,7.04
2023-03-17T03:12:26.014Z,6.93
2023-03-17T03:14:52.438Z,7.08
2023-03-17T03:17:19.267Z,7.11
2023-03-17T03:19:45.717Z,7.01
2023-03-17T03:22:12.339Z,7.11
2023-03-17T03:24:38.786Z,6.98
2023-03-17T03:27:05.349Z,6.97
2023-03-17T03:29:32.011Z,7.08
2023-03-17T03:31:58.458Z,7.07
2023-03-17T03:34:24.859Z,7.05
2023-03-17T03:36:51.285Z,7.03
2023-03-17T03:39:17.745Z,7.03
2023-03-17T03:41:44.210Z,7.04
2023-03-17T03:44:11.001Z,7.05
2023-03-17T03:46:37.428Z,7.02
2023-03-17T03:49:03.908Z,7.05
2023-03-17T03:51:30.430Z,7.01
2023-03-17T03:53:56.834Z,6.94
2023-03-17T03:56:23.194Z,7.01
2023-03-17T03:58:50.002Z,7.00
2023-03-17T04:01:16.407Z,6.94
2023-03-17T04:03:42.873Z,6.90
2023-03-17T04:06:09.335Z,6.87
2023-03-17T04:08:35.745Z,6.78
2023-03-17T04:11:02.345Z,6.81
2023-03-17T04:13:28.775Z,6.74
2023-03-17T04:15:55.249Z,6.72
2023-03-17T04:18:21.971Z,6.66
2023-03-17T04:20:48.498Z,6.63
2023-03-17T04:23:14.932Z,6.65
2023-03-17T04:25:41.384Z,6.61
2023-03-17T04:28:08.995Z,6.61
2023-03-17T04:30:35.441Z,6.60
2023-03-17T04:33:02.128Z,6.54
2023-03-17T04:35:28.558Z,6.44
2023-03-17T04:37:54.995Z,6.49
2023-03-17T04:40:21.565Z,6.47
2023-03-17T04:42:47.996Z,6.47
2023-03-17T04:45:17.558Z,6.46
2023-03-17T04:47:45.956Z,6.44
2023-03-17T04:50:13.340Z,6.47
2023-03-17T04:52:40.335Z,6.29
2023-03-17T04:55:11.770Z,6.36
2023-03-17T04:57:38.685Z,6.34
2023-03-17T05:00:08.276Z,6.17
2023-03-17T05:02:35.177Z,6.23
2023-03-17T05:05:02.078Z,6.15
2023-03-17T05:07:28.516Z,5.93
2023-03-17T05:09:54.904Z,5.99
2023-03-17T05:12:22.768Z,5.80
2023-03-17T05:14:49.374Z,5.86
2023-03-17T05:17:16.246Z,5.79
2023-03-17T05:19:43.041Z,5.74
2023-03-17T05:22:09.789Z,5.64
2023-03-17T05:24:36.315Z,5.59
2023-03-17T05:27:03.041Z,5.52
2023-03-17T05:29:30.011Z,5.42
2023-03-17T05:31:56.483Z,5.40
2023-03-17T05:34:22.954Z,5.42
2023-03-17T05:36:50.416Z,5.48
2023-03-17T05:39:17.455Z,5.46
2023-03-17T05:41:45.752Z,5.71
2023-03-17T05:44:14.600Z,5.65
2023-03-17T05:46:42.359Z,5.88
2023-03-17T05:49:09.025Z,5.78
2023-03-17T05:51:37.325Z,5.98
2023-03-17T05:54:04.100Z,5.90
2023-03-17T05:56:35.679Z,6.01
2023-03-17T05:59:06.423Z,5.99
2023-03-17T06:01:32.945Z,6.16
2023-03-17T06:04:00.998Z,6.22
2023-03-17T06:06:28.124Z,6.24
2023-03-17T06:08:54.892Z,6.24
2023-03-17T06:11:21.691Z,6.21
2023-03-17T06:13:48.162Z,5.94
2023-03-17T06:16:15.187Z,6.13
2023-03-17T06:18:41.655Z,6.09
2023-03-17T06:21:08.194Z,6.09
2023-03-17T06:23:34.656Z,5.98
2023-03-17T06:26:01.075Z,5.68
2023-03-17T06:28:27.586Z,5.51
2023-03-17T06:30:54.102Z,5.56
2023-03-17T06:33:20.642Z,5.51
2023-03-17T06:35:47.465Z,5.52
2023-03-17T06:38:13.969Z,5.32
2023-03-17T06:40:40.625Z,5.48
2023-03-17T06:43:07.548Z,5.48
2023-03-17T06:45:34.126Z,5.67
2023-03-17T06:48:01.643Z,5.73
2023-03-17T06:50:28.225Z,5.66
2023-03-17T06:52:54.755Z,5.85
2023-03-17T06:55:21.555Z,5.89
2023-03-17T06:57:50.845Z,5.94
2023-03-17T07:00:18.403Z,6.01
2023-03-17T07:02:44.847Z,6.13
2023-03-17T07:05:12.628Z,6.21
2023-03-17T07:07:39.547Z,6.44
2023-03-17T07:10:07.079Z,6.90
2023-03-17T07:12:34.351Z,7.16
2023-03-17T07:15:01.599Z,7.51
2023-03-17T07:17:28.119Z,7.86
2023-03-17T07:19:54.558Z,8.08
2023-03-17T07:22:21.116Z,8.35
2023-03-17T07:24:49.034Z,8.55
2023-03-17T07:27:16.571Z,8.66
2023-03-17T07:29:43.180Z,8.90
2023-03-17T07:32:10.390Z,9.01
2023-03-17T07:34:37.360Z,9.10
2023-03-17T07:37:05.235Z,9.14
2023-03-17T07:39:31.883Z,9.25
2023-03-17T07:41:58.385Z,9.26
2023-03-17T07:44:25.910Z,9.45
2023-03-17T07:46:52.414Z,9.59
2023-03-17T07:49:27.626Z,9.66
2023-03-17T07:52:00.701Z,9.80
2023-03-17T07:54:27.716Z,9.81
2023-03-17T07:56:54.167Z,9.82
2023-03-17T07:59:21.103Z,9.98
2023-03-17T08:01:47.773Z,9.93
2023-03-17T08:04:14.706Z,10.10
2023-03-17T08:06:42.185Z,10.20
2023-03-17T08:09:09.642Z,10.36
2023-03-17T08:11:36.102Z,10.49
2023-03-17T08:14:02.724Z,10.60
2023-03-17T08:16:30.011Z,10.70
2023-03-17T08:18:58.810Z,10.89
2023-03-17T08:21:26.624Z,10.90
2023-03-17T08:23:54.217Z,11.31
2023-03-17T08:26:20.703Z,11.54
2023-03-17T08:28:48.681Z,11.95
2023-03-17T08:31:18.105Z,12.25
2023-03-17T08:33:50.012Z,12.48
2023-03-17T08:36:17.486Z,12.61
2023-03-17T08:38:44.886Z,12.70
2023-03-17T08:41:14.723Z,12.82
2023-03-17T08:43:42.631Z,13.06
2023-03-17T08:46:15.778Z,13.09
2023-03-17T08:48:42.863Z,13.12
2023-03-17T08:51:09.313Z,13.33
2023-03-17T08:53:36.107Z,13.53
2023-03-17T08:56:04.701Z,13.70
2023-03-17T08:58:33.170Z,13.67
2023-03-17T09:01:01.032Z,13.62
2023-03-17T09:03:28.119Z,13.66
2023-03-17T09:05:54.996Z,13.81
2023-03-17T09:08:21.925Z,13.91
2023-03-17T09:10:48.786Z,14.00
2023-03-17T09:13:16.312Z,14.05
2023-03-17T09:15:42.991Z,14.24
2023-03-17T09:18:10.509Z,14.36
2023-03-17T09:20:37.173Z,14.55
2023-03-17T09:23:08.409Z,14.76
2023-03-17T09:25:36.286Z,14.88
2023-03-17T09:28:02.872Z,14.88
2023-03-17T09:30:29.939Z,14.89
2023-03-17T09:32:56.770Z,15.04
2023-03-17T09:35:23.337Z,15.16
2023-03-17T09:37:50.429Z,15.32
2023-03-17T09:40:20.086Z,15.44
2023-03-17T09:43:06.012Z,15.73
2023-03-17T09:45:38.920Z,15.85
2023-03-17T09:48:22.896Z,15.85
2023-03-17T09:50:56.465Z,15.83
2023-03-17T09:53:49.294Z,15.62
2023-03-17T09:56:17.415Z,15.87
2023-03-17T09:59:05.676Z,15.94
2023-03-17T10:01:32.905Z,16.21
2023-03-17T10:03:59.409Z,16.34
2023-03-17T10:06:39.235Z,16.60
2023-03-17T10:09:26.741Z,17.02
2023-03-17T10:12:09.963Z,17.09
2023-03-17T10:14:44.833Z,17.23
2023-03-17T10:17:22.350Z,17.53
2023-03-17T10:19:56.784Z,17.50
2023-03-17T10:22:35.138Z,17.39
2023-03-17T10:25:10.570Z,17.71
2023-03-17T10:27:37.502Z,17.92
2023-03-17T10:30:06.100Z,17.94
2023-03-17T10:32:37.635Z,18.16
2023-03-17T10:35:04.732Z,18.35
2023-03-17T10:37:36.523Z,18.37
2023-03-17T10:40:10.182Z,18.35
2023-03-17T10:42:47.561Z,18.49
2023-03-17T10:45:15.014Z,18.72
2023-03-17T10:47:47.502Z,18.64
2023-03-17T10:50:30.032Z,18.36
2023-03-17T10:53:01.490Z,18.11
2023-03-17T10:55:31.920Z,17.88
2023-03-17T10:58:02.350Z,17.65
2023-03-17T11:00:33.660Z,17.47
2023-03-17T11:03:12.299Z,17.38
2023-03-17T11:05:40.143Z,17.22
2023-03-17T11:08:18.712Z,17.35
2023-03-17T11:10:45.753Z,17.49
2023-03-17T11:13:18.372Z,17.58
2023-03-17T11:15:53.299Z,17.63
2023-03-17T11:18:23.168Z,17.79
2023-03-17T11:21:13.119Z,17.73
2023-03-17T11:23:39.613Z,17.67
2023-03-17T11:26:18.924Z,17.77
2023-03-17T11:28:56.996Z,17.77
2023-03-17T11:31:31.916Z,17.67
2023-03-17T11:34:05.827Z,17.83
2023-03-17T11:36:58.286Z,17.70
2023-03-17T11:39:27.415Z,17.61
2023-03-17T11:41:57.113Z,17.57
2023-03-17T11:44:49.000Z,17.55
2023-03-17T11:47:21.309Z,17.67
2023-03-17T11:50:02.102Z,17.77
2023-03-17T11:52:33.106Z,17.99
2023-03-17T11:55:23.351Z,18.13
2023-03-17T11:57:59.302Z,17.97
2023-03-17T12:00:31.027Z,18.18
2023-03-17T12:03:06.242Z,18.28
2023-03-17T12:05:34.952Z,18.30
2023-03-17T12:08:16.580Z,18.09
2023-03-17T12:10:46.976Z,17.92
2023-03-17T12:13:15.098Z,18.02
2023-03-17T12:15:45.529Z,18.04
2023-03-17T12:18:24.010Z,18.08
2023-03-17T12:20:58.494Z,18.11
2023-03-17T12:23:48.306Z,18.29
2023-03-17T12:26:16.469Z,18.50
2023-03-17T12:28:57.409Z,18.87
2023-03-17T12:31:32.428Z,19.07
2023-03-17T12:34:21.520Z,19.32
2023-03-17T12:36:51.462Z,19.41
2023-03-17T12:39:33.134Z,19.56
2023-03-17T12:42:09.974Z,19.53
2023-03-17T12:45:02.259Z,19.44
2023-03-17T12:47:52.752Z,19.50
2023-03-17T12:50:32.592Z,19.57
2023-03-17T12:53:24.692Z,19.74
2023-03-17T12:55:52.757Z,19.99
2023-03-17T12:58:29.850Z,20.19
2023-03-17T13:01:08.766Z,20.20
2023-03-17T13:03:38.779Z,19.97
2023-03-17T13:06:08.600Z,19.89
2023-03-17T13:08:38.085Z,19.88
2023-03-17T13:11:29.548Z,20.16
2023-03-17T13:14:25.868Z,20.37
2023-03-17T13:17:02.974Z,20.36
2023-03-17T13:19:33.836Z,20.30
2023-03-17T13:22:00.563Z,20.31
2023-03-17T13:24:40.594Z,20.43
2023-03-17T13:27:11.570Z,20.57
2023-03-17T13:29:41.977Z,20.63
2023-03-17T13:32:17.343Z,20.41
2023-03-17T13:35:16.653Z,19.99
2023-03-17T13:37:52.206Z,19.83
2023-03-17T13:40:22.041Z,19.63
2023-03-17T13:42:54.113Z,19.50
2023-03-17T13:45:37.321Z,19.47
2023-03-17T13:48:36.260Z,19.57
2023-03-17T13:51:14.473Z,19.63
2023-03-17T13:53:46.963Z,19.37
2023-03-17T13:56:36.249Z,19.34
2023-03-17T13:59:03.701Z,19.36
2023-03-17T14:01:41.906Z,19.41
2023-03-17T14:04:18.807Z,19.43
2023-03-17T14:06:45.737Z,19.37
2023-03-17T14:09:28.323Z,19.18
2023-03-17T14:11:57.330Z,19.07
2023-03-17T14:14:32.965Z,18.96
2023-03-17T14:17:16.661Z,18.90
2023-03-17T14:20:00.798Z,18.77
2023-03-17T14:22:27.691Z,18.69
2023-03-17T14:24:55.966Z,18.60
2023-03-17T14:27:24.006Z,18.56
2023-03-17T14:29:52.249Z,18.49
2023-03-17T14:32:21.261Z,18.52
2023-03-17T14:34:58.492Z,18.39
2023-03-17T14:37:25.190Z,18.45
2023-03-17T14:39:54.159Z,18.38
2023-03-17T14:42:29.469Z,18.48
2023-03-17T14:45:08.464Z,18.45
2023-03-17T14:47:40.322Z,18.58
2023-03-17T14:50:17.396Z,18.50
2023-03-17T14:52:44.183Z,18.40
2023-03-17T14:55:15.507Z,18.40
2023-03-17T14:57:42.082Z,18.35
2023-03-17T15:00:21.793Z,18.35
2023-03-17T15:02:56.458Z,18.26
2023-03-17T15:05:38.646Z,18.26
2023-03-17T15:08:39.572Z,18.22
2023-03-17T15:11:07.074Z,18.28
2023-03-17T15:13:36.344Z,18.23
2023-03-17T15:16:18.194Z,18.32
2023-03-17T15:18:44.999Z,18.42
2023-03-17T15:21:29.861Z,18.47
2023-03-17T15:23:56.410Z,18.49
2023-03-17T15:26:31.612Z,18.53
2023-03-17T15:28:59.753Z,18.44
2023-03-17T15:31:29.462Z,18.50
2023-03-17T15:33:56.356Z,18.40
2023-03-17T15:36:32.154Z,18.39
2023-03-17T15:38:59.410Z,18.26
2023-03-17T15:41:26.027Z,18.28
2023-03-17T15:43:53.633Z,18.10
2023-03-17T15:46:27.918Z,17.87
2023-03-17T15:48:55.134Z,17.68
2023-03-17T15:51:22.049Z,17.59
2023-03-17T15:53:48.840Z,17.56
2023-03-17T15:56:18.964Z,17.43
2023-03-17T15:58:48.072Z,17.40
2023-03-17T16:01:15.677Z,17.39
2023-03-17T16:03:42.487Z,17.34
2023-03-17T16:06:21.223Z,17.26
2023-03-17T16:08:49.267Z,17.26
2023-03-17T16:11:27.815Z,17.30
2023-03-17T16:13:59.042Z,17.37
2023-03-17T16:16:39.935Z,17.40
2023-03-17T16:19:17.638Z,17.31
2023-03-17T16:21:44.306Z,17.18
2023-03-17T16:24:18.749Z,16.86
2023-03-17T16:26:45.478Z,16.83
2023-03-17T16:29:15.630Z,16.71
2023-03-17T16:31:43.973Z,16.65
2023-03-17T16:34:21.197Z,16.56
2023-03-17T16:36:48.456Z,16.51
2023-03-17T16:39:22.954Z,16.42
2023-03-17T16:41:50.328Z,16.35
2023-03-17T16:44:18.454Z,16.24
2023-03-17T16:46:45.208Z,16.17
2023-03-17T16:49:16.107Z,16.12
2023-03-17T16:51:43.356Z,16.03
2023-03-17T16:54:10.714Z,15.94
2023-03-17T16:56:39.150Z,15.94
2023-03-17T16:59:10.412Z,15.98
2023-03-17T17:01:36.989Z,15.88
2023-03-17T17:04:03.466Z,15.95
2023-03-17T17:06:29.870Z,15.92
2023-03-17T17:08:56.350Z,15.92
2023-03-17T17:11:22.789Z,15.87
2023-03-17T17:13:49.909Z,15.71
2023-03-17T17:16:26.530Z,15.71
2023-03-17T17:18:53.474Z,15.66
2023-03-17T17:21:19.988Z,15.55
2023-03-17T17:23:46.626Z,15.48
2023-03-17T17:26:13.172Z,15.37
2023-03-17T17:28:40.366Z,15.36
2023-03-17T17:31:08.498Z,15.28
2023-03-17T17:33:36.250Z,15.24
2023-03-17T17:36:04.675Z,15.07
2023-03-17T17:38:31.709Z,15.05
2023-03-17T17:40:59.897Z,15.03
2023-03-17T17:43:26.465Z,14.99
2023-03-17T17:45:53.230Z,14.94
2023-03-17T17:48:23.455Z,14.83
2023-03-17T17:50:51.015Z,14.75
2023-03-17T17:53:18.061Z,14.71
2023-03-17T17:55:45.993Z,14.64
2023-03-17T17:58:25.188Z,14.64
2023-03-17T18:00:54.055Z,14.63
2023-03-17T18:03:24.509Z,14.59
2023-03-17T18:05:55.252Z,14.57
2023-03-17T18:08:22.122Z,14.59
2023-03-17T18:10:50.759Z,14.60
2023-03-17T18:13:18.283Z,14.61
2023-03-17T18:15:44.741Z,14.54
2023-03-17T18:18:11.208Z,14.56
2023-03-17T18:20:38.234Z,14.55
2023-03-17T18:23:04.724Z,14.54
2023-03-17T18:25:31.282Z,14.44
2023-03-17T18:27:57.834Z,14.41
2023-03-17T18:30:26.835Z,14.44
2023-03-17T18:32:55.870Z,14.26
2023-03-17T18:35:23.547Z,14.43
2023-03-17T18:37:50.776Z,14.41
2023-03-17T18:40:19.082Z,14.39
2023-03-17T18:42:46.296Z,14.37
2023-03-17T18:45:14.002Z,14.32
2023-03-17T18:47:41.875Z,14.20
2023-03-17T18:50:10.204Z,14.27
2023-03-17T18:52:38.546Z,14.22
2023-03-17T18:55:06.524Z,14.19
2023-03-17T18:57:33.320Z,14.14
2023-03-17T18:59:59.819Z,14.09
2023-03-17T19:02:26.517Z,14.07
2023-03-17T19:04:53.179Z,13.88
2023-03-17T19:07:19.838Z,13.96
2023-03-17T19:09:46.274Z,13.91
2023-03-17T19:12:13.489Z,13.88
2023-03-17T19:14:40.355Z,13.89
2023-03-17T19:17:07.532Z,13.78
2023-03-17T19:19:35.270Z,13.88
2023-03-17T19:22:01.990Z,13.87
2023-03-17T19:24:28.711Z,13.86
2023-03-17T19:26:55.227Z,13.86
2023-03-17T19:29:21.808Z,13.88
2023-03-17T19:31:48.897Z,13.91
2023-03-17T19:34:15.523Z,13.86
2023-03-17T19:36:45.726Z,13.80
2023-03-17T19:39:13.147Z,13.84
2023-03-17T19:41:40.017Z,13.85
2023-03-17T19:44:06.827Z,13.82
2023-03-17T19:46:34.388Z,13.79
2023-03-17T19:49:01.574Z,13.78
2023-03-17T19:51:28.408Z,13.75
2023-03-17T19:53:55.546Z,13.71
2023-03-17T19:56:23.179Z,13.69
2023-03-17T19:58:50.054Z,13.65
2023-03-17T20:01:17.171Z,13.68
2023-03-17T20:03:43.798Z,13.63
2023-03-17T20:06:11.984Z,13.67
2023-03-17T20:08:39.547Z,13.57
2023-03-17T20:11:06.660Z,13.54
2023-03-17T20:13:34.733Z,13.56
2023-03-17T20:16:01.892Z,13.60
2023-03-17T20:18:29.107Z,13.59
2023-03-17T20:20:57.485Z,13.42
2023-03-17T20:23:25.097Z,13.52
2023-03-17T20:25:52.590Z,13.52
2023-03-17T20:28:21.399Z,13.47
2023-03-17T20:30:49.286Z,13.46
2023-03-17T20:33:16.622Z,13.44
2023-03-17T20:35:46.562Z,13.46
2023-03-17T20:38:14.610Z,13.44
2023-03-17T20:40:41.987Z,13.38
2023-03-17T20:43:08.547Z,13.30
2023-03-17T20:45:35.064Z,13.37
2023-03-17T20:48:02.020Z,13.34
2023-03-17T20:50:29.432Z,13.35
2023-03-17T20:52:55.869Z,13.37
2023-03-17T20:55:22.347Z,13.33
2023-03-17T20:57:49.832Z,13.28
2023-03-17T21:00:19.999Z,13.27
2023-03-17T21:02:50.597Z,13.28
2023-03-17T21:05:20.308Z,13.26
2023-03-17T21:07:48.359Z,13.24
2023-03-17T21:10:15.969Z,13.28
2023-03-17T21:12:42.878Z,13.27
2023-03-17T21:15:10.263Z,13.24
2023-03-17T21:17:38.044Z,13.29
2023-03-17T21:20:10.007Z,13.26
2023-03-17T21:22:37.015Z,13.28
2023-03-17T21:25:04.609Z,13.24
2023-03-17T21:27:31.904Z,13.20
2023-03-17T21:29:58.433Z,13.19
2023-03-17T21:32:25.007Z,13.20
2023-03-17T21:34:51.577Z,13.18
2023-03-17T21:37:18.730Z,13.19
2023-03-17T21:39:45.789Z,13.13
2023-03-17T21:42:12.445Z,13.14
2023-03-17T21:44:39.527Z,13.03
2023-03-17T21:47:05.902Z,12.98
2023-03-17T21:49:32.343Z,13.04
2023-03-17T21:51:58.816Z,13.01
2023-03-17T21:54:25.584Z,12.97
2023-03-17T21:56:53.485Z,12.94
2023-03-17T21:59:20.932Z,12.94
2023-03-17T22:01:47.883Z,12.89
2023-03-17T22:04:14.314Z,12.85
2023-03-17T22:06:41.150Z,12.74
2023-03-17T22:09:08.590Z,12.82
2023-03-17T22:11:34.964Z,12.81
2023-03-17T22:14:01.803Z,12.82
2023-03-17T22:16:28.237Z,12.79
2023-03-17T22:18:54.937Z,12.74
2023-03-17T22:21:21.644Z,12.78
2023-03-17T22:23:48.200Z,12.77
2023-03-17T22:26:17.354Z,12.76
2023-03-17T22:28:44.749Z,12.76
2023-03-17T22:31:16.547Z,12.73
2023-03-17T22:33:44.083Z,12.69
2023-03-17T22:36:11.167Z,12.67
2023-03-17T22:38:38.342Z,12.66
2023-03-17T22:41:08.000Z,12.60
2023-03-17T22:43:36.122Z,12.54
2023-03-17T22:46:02.985Z,12.52
2023-03-17T22:48:29.541Z,12.51
2023-03-17T22:50:56.056Z,12.48
2023-03-17T22:53:22.532Z,12.43
2023-03-17T22:55:48.954Z,12.40
2023-03-17T22:58:15.371Z,12.42
2023-03-17T23:00:42.394Z,12.44
2023-03-17T23:03:08.838Z,12.42
2023-03-17T23:05:35.329Z,12.41
2023-03-17T23:08:01.879Z,12.40
2023-03-17T23:10:28.536Z,12.39
2023-03-17T23:12:55.211Z,12.41
2023-03-17T23:15:21.846Z,12.40
2023-03-17T23:17:48.723Z,12.38
2023-03-17T23:20:15.735Z,12.37
2023-03-17T23:22:42.268Z,12.38
2023-03-17T23:25:09.466Z,12.33
2023-03-17T23:27:36.040Z,12.32
2023-03-17T23:30:03.676Z,12.32
2023-03-17T23:32:30.307Z,12.34
2023-03-17T23:34:56.748Z,12.33
2023-03-17T23:37:23.613Z,12.34
2023-03-17T23:39:50.010Z,12.30
2023-03-17T23:42:17.231Z,12.37
2023-03-17T23:44:45.057Z,12.35
2023-03-17T23:47:11.710Z,12.33
2023-03-17T23:49:38.793Z,12.31
2023-03-17T23:52:05.382Z,12.34
2023-03-17T23:54:32.026Z,12.36
2023-03-17T23:56:58.534Z,12.35
2023-03-17T23:59:25.280Z,12.36
